sensor_id;sensor_type;location;lat;lon;timestamp;temperature;humidity
59075;DHT22;44860;53.020;6.738;2024-03-08T00:01:41;2.20;99.90
59075;DHT22;44860;53.020;6.738;2024-03-08T00:04:07;2.20;99.90
59075;DHT22;44860;53.020;6.738;2024-03-08T00:06:33;2.20;99.90
59075;DHT22;44860;53.020;6.738;2024-03-08T00:08:59;2.10;99.90
59075;DHT22;44860;53.020;6.738;2024-03-08T00:11:25;2.20;99.90
59075;DHT22;44860;53.020;6.738;2024-03-08T00:13:52;2.10;99.90
59075;DHT22;44860;53.020;6.738;2024-03-08T00:16:18;2.10;99.90
59075;DHT22;44860;53.020;6.738;2024-03-08T00:18:48;2.10;99.90
59075;DHT22;44860;53.020;6.738;2024-03-08T00:21:14;2.10;99.90
59075;DHT22;44860;53.020;6.738;2024-03-08T00:23:41;2.10;99.90
59075;DHT22;44860;53.020;6.738;2024-03-08T00:26:07;2.10;99.90
59075;DHT22;44860;53.020;6.738;2024-03-08T00:28:32;2.10;99.90
59075;DHT22;44860;53.020;6.738;2024-03-08T00:31:00;2.10;99.90
59075;DHT22;44860;53.020;6.738;2024-03-08T00:33:26;2.10;99.90
59075;DHT22;44860;53.020;6.738;2024-03-08T00:35:56;2.10;99.90
59075;DHT22;44860;53.020;6.738;2024-03-08T00:38:21;2.10;99.90
59075;DHT22;44860;53.020;6.738;2024-03-08T00:40:47;2.10;99.90
59075;DHT22;44860;53.020;6.738;2024-03-08T00:43:12;2.00;99.90
59075;DHT22;44860;53.020;6.738;2024-03-08T00:45:38;2.00;99.90
59075;DHT22;44860;53.020;6.738;2024-03-08T00:48:07;2.00;99.90
59075;DHT22;44860;53.020;6.738;2024-03-08T00:50:32;1.90;99.90
59075;DHT22;44860;53.020;6.738;2024-03-08T00:52:59;1.90;99.90
59075;DHT22;44860;53.020;6.738;2024-03-08T00:55:25;1.90;99.90
59075;DHT22;44860;53.020;6.738;2024-03-08T00:57:52;1.90;99.90
59075;DHT22;44860;53.020;6.738;2024-03-08T01:00:19;1.90;99.90
59075;DHT22;44860;53.020;6.738;2024-03-08T01:02:45;1.90;99.90
59075;DHT22;44860;53.020;6.738;2024-03-08T01:05:11;1.90;99.90
59075;DHT22;44860;53.020;6.738;2024-03-08T01:07:37;1.90;99.90
59075;DHT22;44860;53.020;6.738;2024-03-08T01:10:06;1.90;99.90
59075;DHT22;44860;53.020;6.738;2024-03-08T01:12:35;1.90;99.90
59075;DHT22;44860;53.020;6.738;2024-03-08T01:15:01;1.90;99.90
59075;DHT22;44860;53.020;6.738;2024-03-08T01:17:26;1.90;99.90
59075;DHT22;44860;53.020;6.738;2024-03-08T01:19:52;1.90;99.90
59075;DHT22;44860;53.020;6.738;2024-03-08T01:22:19;1.90;99.90
59075;DHT22;44860;53.020;6.738;2024-03-08T01:24:45;1.90;99.90
59075;DHT22;44860;53.020;6.738;2024-03-08T01:27:10;1.90;99.90
59075;DHT22;44860;53.020;6.738;2024-03-08T01:29:38;1.90;99.90
59075;DHT22;44860;53.020;6.738;2024-03-08T01:32:04;1.90;99.90
59075;DHT22;44860;53.020;6.738;2024-03-08T01:34:29;1.90;99.90
59075;DHT22;44860;53.020;6.738;2024-03-08T01:36:55;1.90;99.90
59075;DHT22;44860;53.020;6.738;2024-03-08T01:39:22;1.90;99.90
59075;DHT22;44860;53.020;6.738;2024-03-08T01:41:48;1.90;99.90
59075;DHT22;44860;53.020;6.738;2024-03-08T01:44:13;1.90;99.90
59075;DHT22;44860;53.020;6.738;2024-03-08T01:46:44;1.90;99.90
59075;DHT22;44860;53.020;6.738;2024-03-08T01:49:11;1.90;99.90
59075;DHT22;44860;53.020;6.738;2024-03-08T01:51:39;1.90;99.90
59075;DHT22;44860;53.020;6.738;2024-03-08T01:54:06;1.90;99.90
59075;DHT22;44860;53.020;6.738;2024-03-08T01:56:32;1.80;99.90
59075;DHT22;44860;53.020;6.738;2024-03-08T01:58:59;1.80;99.90
59075;DHT22;44860;53.020;6.738;2024-03-08T02:01:25;1.80;99.90
59075;DHT22;44860;53.020;6.738;2024-03-08T02:03:51;1.80;99.90
59075;DHT22;44860;53.020;6.738;2024-03-08T02:06:17;1.80;99.90
59075;DHT22;44860;53.020;6.738;2024-03-08T02:08:43;1.80;99.90
59075;DHT22;44860;53.020;6.738;2024-03-08T02:11:10;1.80;99.90
59075;DHT22;44860;53.020;6.738;2024-03-08T02:13:35;1.80;99.90
59075;DHT22;44860;53.020;6.738;2024-03-08T02:16:01;1.80;99.90
59075;DHT22;44860;53.020;6.738;2024-03-08T02:18:31;1.80;99.90
59075;DHT22;44860;53.020;6.738;2024-03-08T02:21:01;1.80;99.90
59075;DHT22;44860;53.020;6.738;2024-03-08T02:23:28;1.80;99.90
59075;DHT22;44860;53.020;6.738;2024-03-08T02:25:55;1.80;99.90
59075;DHT22;44860;53.020;6.738;2024-03-08T02:28:22;1.80;99.90
59075;DHT22;44860;53.020;6.738;2024-03-08T02:30:52;1.70;99.90
59075;DHT22;44860;53.020;6.738;2024-03-08T02:33:21;1.80;99.90
59075;DHT22;44860;53.020;6.738;2024-03-08T02:35:48;1.70;99.90
59075;DHT22;44860;53.020;6.738;2024-03-08T02:38:21;1.70;99.90
59075;DHT22;44860;53.020;6.738;2024-03-08T02:40:49;1.70;99.90
59075;DHT22;44860;53.020;6.738;2024-03-08T02:43:16;1.70;99.90
59075;DHT22;44860;53.020;6.738;2024-03-08T02:45:43;1.70;99.90
59075;DHT22;44860;53.020;6.738;2024-03-08T02:48:09;1.70;99.90
59075;DHT22;44860;53.020;6.738;2024-03-08T02:50:36;1.60;99.90
59075;DHT22;44860;53.020;6.738;2024-03-08T02:53:03;1.60;99.90
59075;DHT22;44860;53.020;6.738;2024-03-08T02:55:29;1.60;99.90
59075;DHT22;44860;53.020;6.738;2024-03-08T02:57:56;1.60;99.90
59075;DHT22;44860;53.020;6.738;2024-03-08T03:00:23;1.60;99.90
59075;DHT22;44860;53.020;6.738;2024-03-08T03:02:52;1.60;99.90
59075;DHT22;44860;53.020;6.738;2024-03-08T03:05:23;1.60;99.90
59075;DHT22;44860;53.020;6.738;2024-03-08T03:07:55;1.50;99.90
59075;DHT22;44860;53.020;6.738;2024-03-08T03:10:24;1.50;99.90
59075;DHT22;44860;53.020;6.738;2024-03-08T03:12:54;1.50;99.90
59075;DHT22;44860;53.020;6.738;2024-03-08T03:15:23;1.50;99.90
59075;DHT22;44860;53.020;6.738;2024-03-08T03:17:49;1.40;99.90
59075;DHT22;44860;53.020;6.738;2024-03-08T03:20:19;1.40;99.90
59075;DHT22;44860;53.020;6.738;2024-03-08T03:22:58;1.40;99.90
59075;DHT22;44860;53.020;6.738;2024-03-08T03:25:27;1.30;99.90
59075;DHT22;44860;53.020;6.738;2024-03-08T03:27:58;1.30;99.90
59075;DHT22;44860;53.020;6.738;2024-03-08T03:30:24;1.30;99.90
59075;DHT22;44860;53.020;6.738;2024-03-08T03:32:52;1.40;99.90
59075;DHT22;44860;53.020;6.738;2024-03-08T03:35:20;1.30;99.90
59075;DHT22;44860;53.020;6.738;2024-03-08T03:37:47;1.30;99.90
59075;DHT22;44860;53.020;6.738;2024-03-08T03:40:35;1.30;99.90
59075;DHT22;44860;53.020;6.738;2024-03-08T03:43:02;1.30;99.90
59075;DHT22;44860;53.020;6.738;2024-03-08T03:45:28;1.30;99.90
59075;DHT22;44860;53.020;6.738;2024-03-08T03:47:54;1.30;99.90
59075;DHT22;44860;53.020;6.738;2024-03-08T03:50:21;1.30;99.90
59075;DHT22;44860;53.020;6.738;2024-03-08T03:52:47;1.30;99.90
59075;DHT22;44860;53.020;6.738;2024-03-08T03:55:13;1.30;99.90
59075;DHT22;44860;53.020;6.738;2024-03-08T03:57:40;1.20;99.90
59075;DHT22;44860;53.020;6.738;2024-03-08T04:00:06;1.30;99.90
59075;DHT22;44860;53.020;6.738;2024-03-08T04:02:39;1.20;99.90
59075;DHT22;44860;53.020;6.738;2024-03-08T04:05:06;1.20;99.90
59075;DHT22;44860;53.020;6.738;2024-03-08T04:07:32;1.20;99.90
59075;DHT22;44860;53.020;6.738;2024-03-08T04:09:58;1.20;99.90
59075;DHT22;44860;53.020;6.738;2024-03-08T04:12:23;1.20;99.90
59075;DHT22;44860;53.020;6.738;2024-03-08T04:14:49;1.20;99.90
59075;DHT22;44860;53.020;6.738;2024-03-08T04:17:15;1.10;99.90
59075;DHT22;44860;53.020;6.738;2024-03-08T04:19:40;1.10;99.90
59075;DHT22;44860;53.020;6.738;2024-03-08T04:22:06;1.10;99.90
59075;DHT22;44860;53.020;6.738;2024-03-08T04:24:33;1.10;99.90
59075;DHT22;44860;53.020;6.738;2024-03-08T04:26:59;1.10;99.90
59075;DHT22;44860;53.020;6.738;2024-03-08T04:29:25;1.10;99.90
59075;DHT22;44860;53.020;6.738;2024-03-08T04:31:50;1.10;99.90
59075;DHT22;44860;53.020;6.738;2024-03-08T04:34:20;1.10;99.90
59075;DHT22;44860;53.020;6.738;2024-03-08T04:36:47;1.10;99.90
59075;DHT22;44860;53.020;6.738;2024-03-08T04:39:13;1.10;99.90
59075;DHT22;44860;53.020;6.738;2024-03-08T04:41:39;1.10;99.90
59075;DHT22;44860;53.020;6.738;2024-03-08T04:44:05;1.10;99.90
59075;DHT22;44860;53.020;6.738;2024-03-08T04:46:31;1.10;99.90
59075;DHT22;44860;53.020;6.738;2024-03-08T04:48:57;1.10;99.90
59075;DHT22;44860;53.020;6.738;2024-03-08T04:51:25;1.10;99.90
59075;DHT22;44860;53.020;6.738;2024-03-08T04:53:50;1.00;99.90
59075;DHT22;44860;53.020;6.738;2024-03-08T04:56:16;1.00;99.90
59075;DHT22;44860;53.020;6.738;2024-03-08T04:58:45;1.00;99.90
59075;DHT22;44860;53.020;6.738;2024-03-08T05:01:12;1.00;99.90
59075;DHT22;44860;53.020;6.738;2024-03-08T05:03:38;1.00;99.90
59075;DHT22;44860;53.020;6.738;2024-03-08T05:06:04;1.00;99.90
59075;DHT22;44860;53.020;6.738;2024-03-08T05:08:30;1.00;99.90
59075;DHT22;44860;53.020;6.738;2024-03-08T05:10:56;1.00;99.90
59075;DHT22;44860;53.020;6.738;2024-03-08T05:13:22;0.90;99.90
59075;DHT22;44860;53.020;6.738;2024-03-08T05:15:49;0.90;99.90
59075;DHT22;44860;53.020;6.738;2024-03-08T05:18:16;0.90;99.90
59075;DHT22;44860;53.020;6.738;2024-03-08T05:20:42;0.90;99.90
59075;DHT22;44860;53.020;6.738;2024-03-08T05:23:07;0.90;99.90
59075;DHT22;44860;53.020;6.738;2024-03-08T05:25:33;0.90;99.90
59075;DHT22;44860;53.020;6.738;2024-03-08T05:27:59;0.90;99.90
59075;DHT22;44860;53.020;6.738;2024-03-08T05:30:25;0.90;99.90
59075;DHT22;44860;53.020;6.738;2024-03-08T05:32:50;0.90;99.90
59075;DHT22;44860;53.020;6.738;2024-03-08T05:35:16;0.90;99.90
59075;DHT22;44860;53.020;6.738;2024-03-08T05:37:42;0.90;99.90
59075;DHT22;44860;53.020;6.738;2024-03-08T05:40:08;0.90;99.90
59075;DHT22;44860;53.020;6.738;2024-03-08T05:42:38;0.80;99.90
59075;DHT22;44860;53.020;6.738;2024-03-08T05:45:04;0.80;99.90
59075;DHT22;44860;53.020;6.738;2024-03-08T05:47:32;0.80;99.90
59075;DHT22;44860;53.020;6.738;2024-03-08T05:49:58;0.90;99.90
59075;DHT22;44860;53.020;6.738;2024-03-08T05:52:24;0.90;99.90
59075;DHT22;44860;53.020;6.738;2024-03-08T05:54:51;0.80;99.90
59075;DHT22;44860;53.020;6.738;2024-03-08T05:57:17;0.80;99.90
59075;DHT22;44860;53.020;6.738;2024-03-08T05:59:43;0.80;99.90
59075;DHT22;44860;53.020;6.738;2024-03-08T06:02:09;0.80;99.90
59075;DHT22;44860;53.020;6.738;2024-03-08T06:04:34;0.80;99.90
59075;DHT22;44860;53.020;6.738;2024-03-08T06:07:00;0.70;99.90
59075;DHT22;44860;53.020;6.738;2024-03-08T06:09:28;0.80;99.90
59075;DHT22;44860;53.020;6.738;2024-03-08T06:11:54;0.70;99.90
59075;DHT22;44860;53.020;6.738;2024-03-08T06:14:20;0.80;99.90
59075;DHT22;44860;53.020;6.738;2024-03-08T06:16:46;0.70;99.90
59075;DHT22;44860;53.020;6.738;2024-03-08T06:19:13;0.80;99.90
59075;DHT22;44860;53.020;6.738;2024-03-08T06:21:39;0.80;99.90
59075;DHT22;44860;53.020;6.738;2024-03-08T06:24:05;0.80;99.90
59075;DHT22;44860;53.020;6.738;2024-03-08T06:26:30;0.80;99.90
59075;DHT22;44860;53.020;6.738;2024-03-08T06:28:56;0.80;99.90
59075;DHT22;44860;53.020;6.738;2024-03-08T06:31:22;0.80;99.90
59075;DHT22;44860;53.020;6.738;2024-03-08T06:33:48;0.80;99.90
59075;DHT22;44860;53.020;6.738;2024-03-08T06:36:19;0.70;99.90
59075;DHT22;44860;53.020;6.738;2024-03-08T06:38:47;0.70;99.90
59075;DHT22;44860;53.020;6.738;2024-03-08T06:41:13;0.70;99.90
59075;DHT22;44860;53.020;6.738;2024-03-08T06:43:45;0.70;99.90
59075;DHT22;44860;53.020;6.738;2024-03-08T06:46:11;0.70;99.90
59075;DHT22;44860;53.020;6.738;2024-03-08T06:48:39;0.80;99.90
59075;DHT22;44860;53.020;6.738;2024-03-08T06:51:05;0.80;99.90
59075;DHT22;44860;53.020;6.738;2024-03-08T06:53:31;0.80;99.90
59075;DHT22;44860;53.020;6.738;2024-03-08T06:55:57;0.80;99.90
59075;DHT22;44860;53.020;6.738;2024-03-08T06:58:24;0.80;99.90
59075;DHT22;44860;53.020;6.738;2024-03-08T07:00:49;0.80;99.90
59075;DHT22;44860;53.020;6.738;2024-03-08T07:03:18;0.80;99.90
59075;DHT22;44860;53.020;6.738;2024-03-08T07:05:44;0.90;99.90
59075;DHT22;44860;53.020;6.738;2024-03-08T07:08:10;0.90;99.90
59075;DHT22;44860;53.020;6.738;2024-03-08T07:10:35;0.90;99.90
59075;DHT22;44860;53.020;6.738;2024-03-08T07:13:02;0.90;99.90
59075;DHT22;44860;53.020;6.738;2024-03-08T07:15:28;0.90;99.90
59075;DHT22;44860;53.020;6.738;2024-03-08T07:17:54;0.90;99.90
59075;DHT22;44860;53.020;6.738;2024-03-08T07:20:20;1.00;99.90
59075;DHT22;44860;53.020;6.738;2024-03-08T07:22:47;1.00;99.90
59075;DHT22;44860;53.020;6.738;2024-03-08T07:25:13;1.00;99.90
59075;DHT22;44860;53.020;6.738;2024-03-08T07:27:47;1.00;99.90
59075;DHT22;44860;53.020;6.738;2024-03-08T07:30:13;1.10;99.90
59075;DHT22;44860;53.020;6.738;2024-03-08T07:32:59;1.10;99.90
59075;DHT22;44860;53.020;6.738;2024-03-08T07:35:24;1.10;99.90
59075;DHT22;44860;53.020;6.738;2024-03-08T07:37:52;1.10;99.90
59075;DHT22;44860;53.020;6.738;2024-03-08T07:40:23;1.20;99.90
59075;DHT22;44860;53.020;6.738;2024-03-08T07:42:49;1.20;99.90
59075;DHT22;44860;53.020;6.738;2024-03-08T07:45:18;1.20;99.90
59075;DHT22;44860;53.020;6.738;2024-03-08T07:47:44;1.30;99.90
59075;DHT22;44860;53.020;6.738;2024-03-08T07:50:10;1.30;99.90
59075;DHT22;44860;53.020;6.738;2024-03-08T07:52:36;1.30;99.90
59075;DHT22;44860;53.020;6.738;2024-03-08T07:55:02;1.30;99.90
59075;DHT22;44860;53.020;6.738;2024-03-08T07:57:29;1.40;99.90
59075;DHT22;44860;53.020;6.738;2024-03-08T07:59:55;1.40;99.90
59075;DHT22;44860;53.020;6.738;2024-03-08T08:02:21;1.40;99.90
59075;DHT22;44860;53.020;6.738;2024-03-08T08:04:47;1.40;99.90
59075;DHT22;44860;53.020;6.738;2024-03-08T08:07:12;1.50;99.90
59075;DHT22;44860;53.020;6.738;2024-03-08T08:09:40;1.50;99.90
59075;DHT22;44860;53.020;6.738;2024-03-08T08:12:08;1.50;99.90
59075;DHT22;44860;53.020;6.738;2024-03-08T08:14:38;1.60;99.90
59075;DHT22;44860;53.020;6.738;2024-03-08T08:17:04;1.70;99.90
59075;DHT22;44860;53.020;6.738;2024-03-08T08:19:30;1.70;99.90
59075;DHT22;44860;53.020;6.738;2024-03-08T08:21:57;1.70;99.90
59075;DHT22;44860;53.020;6.738;2024-03-08T08:24:23;1.80;99.90
59075;DHT22;44860;53.020;6.738;2024-03-08T08:26:49;1.90;99.90
59075;DHT22;44860;53.020;6.738;2024-03-08T08:29:15;1.90;99.90
59075;DHT22;44860;53.020;6.738;2024-03-08T08:31:41;2.00;99.90
59075;DHT22;44860;53.020;6.738;2024-03-08T08:34:09;2.00;99.90
59075;DHT22;44860;53.020;6.738;2024-03-08T08:36:34;2.10;99.90
59075;DHT22;44860;53.020;6.738;2024-03-08T08:39:00;2.20;99.90
59075;DHT22;44860;53.020;6.738;2024-03-08T08:41:28;2.20;99.90
59075;DHT22;44860;53.020;6.738;2024-03-08T08:43:54;2.30;99.90
59075;DHT22;44860;53.020;6.738;2024-03-08T08:46:20;2.30;99.90
59075;DHT22;44860;53.020;6.738;2024-03-08T08:48:47;2.30;99.90
59075;DHT22;44860;53.020;6.738;2024-03-08T08:51:12;2.40;99.90
59075;DHT22;44860;53.020;6.738;2024-03-08T08:53:42;2.40;99.90
59075;DHT22;44860;53.020;6.738;2024-03-08T08:56:11;2.50;99.90
59075;DHT22;44860;53.020;6.738;2024-03-08T08:58:41;2.60;99.90
59075;DHT22;44860;53.020;6.738;2024-03-08T09:01:08;2.60;99.90
59075;DHT22;44860;53.020;6.738;2024-03-08T09:03:36;2.70;99.90
59075;DHT22;44860;53.020;6.738;2024-03-08T09:06:03;2.70;99.90
59075;DHT22;44860;53.020;6.738;2024-03-08T09:08:29;2.80;99.90
59075;DHT22;44860;53.020;6.738;2024-03-08T09:10:55;2.80;99.90
59075;DHT22;44860;53.020;6.738;2024-03-08T09:13:21;2.90;99.90
59075;DHT22;44860;53.020;6.738;2024-03-08T09:15:47;2.90;99.90
59075;DHT22;44860;53.020;6.738;2024-03-08T09:18:12;3.00;99.90
59075;DHT22;44860;53.020;6.738;2024-03-08T09:20:38;3.00;99.90
59075;DHT22;44860;53.020;6.738;2024-03-08T09:23:04;3.10;99.90
59075;DHT22;44860;53.020;6.738;2024-03-08T09:25:29;3.20;99.90
59075;DHT22;44860;53.020;6.738;2024-03-08T09:27:55;3.30;99.90
59075;DHT22;44860;53.020;6.738;2024-03-08T09:30:21;3.30;99.90
59075;DHT22;44860;53.020;6.738;2024-03-08T09:32:47;3.40;99.90
59075;DHT22;44860;53.020;6.738;2024-03-08T09:35:13;3.50;99.90
59075;DHT22;44860;53.020;6.738;2024-03-08T09:37:38;3.60;99.90
59075;DHT22;44860;53.020;6.738;2024-03-08T09:40:05;3.60;99.90
59075;DHT22;44860;53.020;6.738;2024-03-08T09:42:37;3.70;99.90
59075;DHT22;44860;53.020;6.738;2024-03-08T09:45:09;3.80;99.90
59075;DHT22;44860;53.020;6.738;2024-03-08T09:47:44;3.80;99.90
59075;DHT22;44860;53.020;6.738;2024-03-08T09:50:11;3.90;99.90
59075;DHT22;44860;53.020;6.738;2024-03-08T09:52:42;4.00;99.90
59075;DHT22;44860;53.020;6.738;2024-03-08T09:55:12;4.10;99.90
59075;DHT22;44860;53.020;6.738;2024-03-08T09:57:39;4.10;99.90
59075;DHT22;44860;53.020;6.738;2024-03-08T10:00:05;4.30;99.90
59075;DHT22;44860;53.020;6.738;2024-03-08T10:02:47;4.30;99.90
59075;DHT22;44860;53.020;6.738;2024-03-08T10:05:14;4.40;99.90
59075;DHT22;44860;53.020;6.738;2024-03-08T10:07:41;4.50;99.90
59075;DHT22;44860;53.020;6.738;2024-03-08T10:10:07;4.60;99.90
59075;DHT22;44860;53.020;6.738;2024-03-08T10:12:34;4.70;99.90
59075;DHT22;44860;53.020;6.738;2024-03-08T10:15:00;4.70;99.90
59075;DHT22;44860;53.020;6.738;2024-03-08T10:17:26;4.80;99.90
59075;DHT22;44860;53.020;6.738;2024-03-08T10:19:57;4.90;99.90
59075;DHT22;44860;53.020;6.738;2024-03-08T10:22:25;5.00;99.90
59075;DHT22;44860;53.020;6.738;2024-03-08T10:24:51;5.10;99.90
59075;DHT22;44860;53.020;6.738;2024-03-08T10:27:17;5.10;99.90
59075;DHT22;44860;53.020;6.738;2024-03-08T10:29:45;5.20;99.90
59075;DHT22;44860;53.020;6.738;2024-03-08T10:32:11;5.40;99.90
59075;DHT22;44860;53.020;6.738;2024-03-08T10:34:37;5.40;99.90
59075;DHT22;44860;53.020;6.738;2024-03-08T10:37:04;5.50;99.90
59075;DHT22;44860;53.020;6.738;2024-03-08T10:39:35;5.60;99.90
59075;DHT22;44860;53.020;6.738;2024-03-08T10:42:03;5.60;99.90
59075;DHT22;44860;53.020;6.738;2024-03-08T10:47:01;5.80;99.90
59075;DHT22;44860;53.020;6.738;2024-03-08T10:49:59;5.90;99.90
59075;DHT22;44860;53.020;6.738;2024-03-08T10:52:29;6.10;99.90
59075;DHT22;44860;53.020;6.738;2024-03-08T10:54:56;6.20;99.90
59075;DHT22;44860;53.020;6.738;2024-03-08T10:57:22;6.30;99.90
59075;DHT22;44860;53.020;6.738;2024-03-08T10:59:49;6.40;99.90
59075;DHT22;44860;53.020;6.738;2024-03-08T11:02:17;6.50;99.90
59075;DHT22;44860;53.020;6.738;2024-03-08T11:04:48;6.70;99.90
59075;DHT22;44860;53.020;6.738;2024-03-08T11:07:15;6.80;99.90
59075;DHT22;44860;53.020;6.738;2024-03-08T11:09:43;6.90;99.90
59075;DHT22;44860;53.020;6.738;2024-03-08T11:12:29;7.00;99.90
59075;DHT22;44860;53.020;6.738;2024-03-08T11:15:11;7.10;99.90
59075;DHT22;44860;53.020;6.738;2024-03-08T11:20:13;7.40;99.90
59075;DHT22;44860;53.020;6.738;2024-03-08T11:23:16;7.50;99.90
59075;DHT22;44860;53.020;6.738;2024-03-08T11:25:48;7.60;99.90
59075;DHT22;44860;53.020;6.738;2024-03-08T11:28:20;7.80;99.90
59075;DHT22;44860;53.020;6.738;2024-03-08T11:31:31;7.90;99.90
59075;DHT22;44860;53.020;6.738;2024-03-08T11:33:35;8.00;99.90
59075;DHT22;44860;53.020;6.738;2024-03-08T11:38:43;8.20;99.90
59075;DHT22;44860;53.020;6.738;2024-03-08T11:41:09;8.30;99.90
59075;DHT22;44860;53.020;6.738;2024-03-08T11:43:40;8.40;99.90
59075;DHT22;44860;53.020;6.738;2024-03-08T11:46:10;8.50;99.90
59075;DHT22;44860;53.020;6.738;2024-03-08T11:48:39;8.60;99.90
59075;DHT22;44860;53.020;6.738;2024-03-08T11:51:07;8.60;99.90
59075;DHT22;44860;53.020;6.738;2024-03-08T11:53:33;8.70;99.90
59075;DHT22;44860;53.020;6.738;2024-03-08T11:56:12;8.80;99.90
59075;DHT22;44860;53.020;6.738;2024-03-08T11:58:39;8.80;99.90
59075;DHT22;44860;53.020;6.738;2024-03-08T12:01:10;8.90;99.90
59075;DHT22;44860;53.020;6.738;2024-03-08T12:03:39;9.00;99.90
59075;DHT22;44860;53.020;6.738;2024-03-08T12:06:08;9.10;99.90
59075;DHT22;44860;53.020;6.738;2024-03-08T12:08:35;9.20;99.90
59075;DHT22;44860;53.020;6.738;2024-03-08T12:11:01;9.30;99.90
59075;DHT22;44860;53.020;6.738;2024-03-08T12:13:31;9.40;99.90
59075;DHT22;44860;53.020;6.738;2024-03-08T12:15:58;9.50;99.90
59075;DHT22;44860;53.020;6.738;2024-03-08T12:18:28;9.50;99.90
59075;DHT22;44860;53.020;6.738;2024-03-08T12:21:12;9.60;99.90
59075;DHT22;44860;53.020;6.738;2024-03-08T12:23:47;9.70;99.90
59075;DHT22;44860;53.020;6.738;2024-03-08T12:26:28;9.80;99.90
59075;DHT22;44860;53.020;6.738;2024-03-08T12:28:56;9.80;99.90
59075;DHT22;44860;53.020;6.738;2024-03-08T12:31:39;9.80;99.90
59075;DHT22;44860;53.020;6.738;2024-03-08T12:34:05;9.90;99.90
59075;DHT22;44860;53.020;6.738;2024-03-08T12:36:31;9.90;99.90
59075;DHT22;44860;53.020;6.738;2024-03-08T12:38:57;10.00;99.90
59075;DHT22;44860;53.020;6.738;2024-03-08T12:41:24;10.10;99.90
59075;DHT22;44860;53.020;6.738;2024-03-08T12:43:52;10.20;99.90
59075;DHT22;44860;53.020;6.738;2024-03-08T12:46:19;10.30;99.90
59075;DHT22;44860;53.020;6.738;2024-03-08T12:48:51;10.30;99.90
59075;DHT22;44860;53.020;6.738;2024-03-08T12:51:20;10.40;99.90
59075;DHT22;44860;53.020;6.738;2024-03-08T12:53:46;10.50;99.90
59075;DHT22;44860;53.020;6.738;2024-03-08T12:56:13;10.60;99.90
59075;DHT22;44860;53.020;6.738;2024-03-08T12:58:40;10.70;99.90
59075;DHT22;44860;53.020;6.738;2024-03-08T13:01:06;10.80;99.90
59075;DHT22;44860;53.020;6.738;2024-03-08T13:03:35;10.80;99.90
59075;DHT22;44860;53.020;6.738;2024-03-08T13:06:07;10.90;99.90
59075;DHT22;44860;53.020;6.738;2024-03-08T13:08:39;11.00;99.90
59075;DHT22;44860;53.020;6.738;2024-03-08T13:11:06;11.10;99.90
59075;DHT22;44860;53.020;6.738;2024-03-08T13:13:33;11.10;99.90
59075;DHT22;44860;53.020;6.738;2024-03-08T13:16:01;11.20;99.90
59075;DHT22;44860;53.020;6.738;2024-03-08T13:18:27;11.20;99.90
59075;DHT22;44860;53.020;6.738;2024-03-08T13:20:54;11.30;99.90
59075;DHT22;44860;53.020;6.738;2024-03-08T13:23:20;11.40;99.90
59075;DHT22;44860;53.020;6.738;2024-03-08T13:25:46;11.50;99.90
59075;DHT22;44860;53.020;6.738;2024-03-08T13:28:15;11.50;99.90
59075;DHT22;44860;53.020;6.738;2024-03-08T13:30:41;11.50;99.90
59075;DHT22;44860;53.020;6.738;2024-03-08T13:33:07;11.60;99.90
59075;DHT22;44860;53.020;6.738;2024-03-08T13:35:33;11.70;99.90
59075;DHT22;44860;53.020;6.738;2024-03-08T13:38:00;11.70;99.90
59075;DHT22;44860;53.020;6.738;2024-03-08T13:40:29;11.80;99.90
59075;DHT22;44860;53.020;6.738;2024-03-08T13:42:56;11.90;99.90
59075;DHT22;44860;53.020;6.738;2024-03-08T13:45:22;11.90;99.90
59075;DHT22;44860;53.020;6.738;2024-03-08T13:47:50;12.00;99.90
59075;DHT22;44860;53.020;6.738;2024-03-08T13:50:19;12.10;99.90
59075;DHT22;44860;53.020;6.738;2024-03-08T13:52:49;12.20;99.90
59075;DHT22;44860;53.020;6.738;2024-03-08T13:55:19;12.30;99.90
59075;DHT22;44860;53.020;6.738;2024-03-08T13:57:47;12.40;99.90
59075;DHT22;44860;53.020;6.738;2024-03-08T14:00:13;12.50;99.90
59075;DHT22;44860;53.020;6.738;2024-03-08T14:02:40;12.60;99.90
59075;DHT22;44860;53.020;6.738;2024-03-08T14:05:07;12.60;99.90
59075;DHT22;44860;53.020;6.738;2024-03-08T14:07:35;12.70;99.90
59075;DHT22;44860;53.020;6.738;2024-03-08T14:10:01;12.70;99.90
59075;DHT22;44860;53.020;6.738;2024-03-08T14:12:26;12.80;99.90
59075;DHT22;44860;53.020;6.738;2024-03-08T14:14:55;12.90;99.90
59075;DHT22;44860;53.020;6.738;2024-03-08T14:17:20;13.00;99.90
59075;DHT22;44860;53.020;6.738;2024-03-08T14:19:46;13.00;99.90
59075;DHT22;44860;53.020;6.738;2024-03-08T14:22:12;13.00;99.90
59075;DHT22;44860;53.020;6.738;2024-03-08T14:24:40;13.00;99.90
59075;DHT22;44860;53.020;6.738;2024-03-08T14:27:08;13.00;99.30
59075;DHT22;44860;53.020;6.738;2024-03-08T14:29:38;12.90;97.90
59075;DHT22;44860;53.020;6.738;2024-03-08T14:32:05;12.90;96.90
59075;DHT22;44860;53.020;6.738;2024-03-08T14:34:32;12.90;97.50
59075;DHT22;44860;53.020;6.738;2024-03-08T14:36:59;12.90;97.50
59075;DHT22;44860;53.020;6.738;2024-03-08T14:39:25;12.90;95.10
59075;DHT22;44860;53.020;6.738;2024-03-08T14:41:54;12.90;94.00
59075;DHT22;44860;53.020;6.738;2024-03-08T14:44:21;12.80;93.50
59075;DHT22;44860;53.020;6.738;2024-03-08T14:46:47;12.90;94.40
59075;DHT22;44860;53.020;6.738;2024-03-08T14:49:13;12.90;94.50
59075;DHT22;44860;53.020;6.738;2024-03-08T14:51:39;13.00;95.00
59075;DHT22;44860;53.020;6.738;2024-03-08T14:54:05;13.00;95.50
59075;DHT22;44860;53.020;6.738;2024-03-08T14:56:32;13.00;95.80
59075;DHT22;44860;53.020;6.738;2024-03-08T14:58:58;13.10;95.90
59075;DHT22;44860;53.020;6.738;2024-03-08T15:01:25;13.10;95.30
59075;DHT22;44860;53.020;6.738;2024-03-08T15:03:55;13.10;95.30
59075;DHT22;44860;53.020;6.738;2024-03-08T15:06:21;13.10;95.00
59075;DHT22;44860;53.020;6.738;2024-03-08T15:08:47;13.10;94.30
59075;DHT22;44860;53.020;6.738;2024-03-08T15:11:14;13.10;94.70
59075;DHT22;44860;53.020;6.738;2024-03-08T15:13:51;13.00;94.80
59075;DHT22;44860;53.020;6.738;2024-03-08T15:16:19;13.10;94.90
59075;DHT22;44860;53.020;6.738;2024-03-08T15:18:49;13.00;94.00
59075;DHT22;44860;53.020;6.738;2024-03-08T15:21:17;13.00;94.60
59075;DHT22;44860;53.020;6.738;2024-03-08T15:23:45;13.00;94.10
59075;DHT22;44860;53.020;6.738;2024-03-08T15:26:20;12.90;93.60
59075;DHT22;44860;53.020;6.738;2024-03-08T15:28:46;12.90;94.10
59075;DHT22;44860;53.020;6.738;2024-03-08T15:31:13;12.90;94.10
59075;DHT22;44860;53.020;6.738;2024-03-08T15:33:41;12.90;93.80
59075;DHT22;44860;53.020;6.738;2024-03-08T15:36:11;12.70;92.40
59075;DHT22;44860;53.020;6.738;2024-03-08T15:38:40;12.60;92.50
59075;DHT22;44860;53.020;6.738;2024-03-08T15:41:06;12.50;92.10
59075;DHT22;44860;53.020;6.738;2024-03-08T15:43:39;12.50;92.20
59075;DHT22;44860;53.020;6.738;2024-03-08T15:46:05;12.40;92.70
59075;DHT22;44860;53.020;6.738;2024-03-08T15:48:35;12.40;93.20
59075;DHT22;44860;53.020;6.738;2024-03-08T15:51:04;12.30;93.10
59075;DHT22;44860;53.020;6.738;2024-03-08T15:53:33;12.30;93.20